Time;durP1;ratioP1;P1;durP2;ratioP2;P2;SDS_P1;SDS_P2;PMS_P1;PMS_P2;Temp;Humidity;BMP_temperature;BMP_pressure;BME280_temperature;BME280_humidity;BME280_pressure;Samples;Min_cycle;Max_cycle;Signal;HPM_P1;HPM_P2
2021/07/17 00:00:18;;;;;;;20.85;16.02;;;17.80;99.90;;;;;;5043338;28;20021;-76
2021/07/17 00:02:43;;;;;;;20.67;15.75;;;17.90;99.90;;;;;;5045755;28;20040;-77
2021/07/17 00:05:11;;;;;;;21.20;15.95;;;17.90;99.90;;;;;;5045762;28;20041;-77
2021/07/17 00:07:37;;;;;;;24.90;16.17;;;17.90;99.90;;;;;;5047663;28;20027;-77
2021/07/17 00:10:16;;;;;;;19.52;15.18;;;17.80;99.90;;;;;;5043409;28;20387;-76
2021/07/17 00:12:42;;;;;;;21.60;15.68;;;18.00;99.90;;;;;;5041993;28;20028;-76
2021/07/17 00:15:10;;;;;;;24.38;17.27;;;18.00;99.90;;;;;;5041661;28;20028;-77
2021/07/17 00:17:35;;;;;;;22.13;16.33;;;18.20;99.90;;;;;;5039832;28;20029;-76
2021/07/17 00:20:01;;;;;;;21.17;16.85;;;18.20;99.90;;;;;;5044863;28;20083;-77
2021/07/17 00:22:26;;;;;;;21.73;16.55;;;18.10;99.90;;;;;;5052235;28;20032;-77
2021/07/17 00:24:52;;;;;;;23.42;15.90;;;18.30;99.90;;;;;;5044048;28;20032;-77
2021/07/17 00:27:17;;;;;;;23.15;15.73;;;18.40;99.90;;;;;;5051370;28;20029;-77
2021/07/17 00:29:45;;;;;;;22.00;16.65;;;18.40;99.90;;;;;;5035812;28;20047;-78
2021/07/17 00:32:10;;;;;;;18.85;15.98;;;18.40;99.90;;;;;;5043197;28;20155;-77
2021/07/17 00:34:36;;;;;;;22.98;16.45;;;18.50;99.90;;;;;;5049150;28;20100;-78
2021/07/17 00:37:01;;;;;;;25.00;16.95;;;18.40;99.90;;;;;;5046162;28;20025;-78
2021/07/17 00:39:27;;;;;;;29.58;17.10;;;18.30;99.90;;;;;;5040325;28;20017;-77
2021/07/17 00:41:53;;;;;;;27.88;18.67;;;18.10;99.90;;;;;;5037855;28;20097;-76
2021/07/17 00:44:19;;;;;;;25.90;17.58;;;17.80;99.90;;;;;;5038741;28;20018;-78
2021/07/17 00:46:46;;;;;;;27.35;18.00;;;17.70;99.90;;;;;;5036901;28;20039;-77
2021/07/17 00:49:12;;;;;;;26.05;18.23;;;17.80;99.90;;;;;;5043086;28;20030;-77
2021/07/17 00:51:37;;;;;;;26.88;19.35;;;17.70;99.90;;;;;;5044980;28;20029;-77
2021/07/17 00:54:03;;;;;;;27.40;18.48;;;17.70;99.90;;;;;;5043212;28;20036;-77
2021/07/17 00:56:30;;;;;;;27.90;18.30;;;17.80;99.90;;;;;;5044506;28;20104;-77
2021/07/17 00:58:58;;;;;;;26.55;19.02;;;17.90;99.90;;;;;;5041182;28;20731;-77
2021/07/17 01:01:26;;;;;;;30.77;18.20;;;17.80;99.90;;;;;;5039790;28;20486;-77
2021/07/17 01:03:53;;;;;;;29.33;18.80;;;17.90;99.90;;;;;;5041168;28;20442;-77
2021/07/17 01:06:19;;;;;;;27.58;18.60;;;17.80;99.90;;;;;;5047763;28;20029;-77
2021/07/17 01:08:44;;;;;;;24.27;16.48;;;18.00;99.90;;;;;;5041154;28;20364;-77
2021/07/17 01:11:10;;;;;;;24.25;18.42;;;18.00;99.90;;;;;;5046755;28;20057;-77
2021/07/17 01:13:35;;;;;;;30.80;18.83;;;18.30;99.90;;;;;;5045518;28;20096;-77
2021/07/17 01:16:01;;;;;;;26.92;18.83;;;18.20;99.90;;;;;;5043614;28;20029;-77
2021/07/17 01:18:27;;;;;;;25.73;17.67;;;18.30;99.90;;;;;;5043177;28;20436;-77
2021/07/17 01:20:56;;;;;;;24.73;19.33;;;18.40;99.90;;;;;;5043233;28;20550;-76
2021/07/17 01:23:21;;;;;;;32.35;20.40;;;18.40;99.90;;;;;;5041167;28;20025;-76
2021/07/17 01:25:47;;;;;;;27.67;19.27;;;18.40;99.90;;;;;;5041965;28;20074;-77
2021/07/17 01:28:13;;;;;;;30.58;19.75;;;18.40;99.90;;;;;;5042729;28;20021;-76
2021/07/17 01:30:38;;;;;;;27.27;18.88;;;18.40;99.90;;;;;;5043003;28;20179;-77
2021/07/17 01:33:06;;;;;;;33.63;20.98;;;18.40;99.90;;;;;;5044085;28;20037;-77
2021/07/17 01:35:32;;;;;;;32.08;20.83;;;18.30;99.90;;;;;;5044066;28;20028;-77
2021/07/17 01:37:58;;;;;;;30.10;20.73;;;17.90;99.90;;;;;;5042074;28;20021;-77
2021/07/17 01:40:24;;;;;;;33.80;21.75;;;18.00;99.90;;;;;;5043379;28;20021;-77
2021/07/17 01:42:52;;;;;;;32.78;21.88;;;17.90;99.90;;;;;;5033807;28;20029;-77
2021/07/17 01:45:38;;;;;;;28.83;19.95;;;17.80;99.90;;;;;;5033657;28;20029;-77
2021/07/17 01:48:04;;;;;;;28.67;19.60;;;18.00;99.90;;;;;;5032687;28;20028;-77
2021/07/17 01:50:31;;;;;;;28.75;19.77;;;18.30;99.90;;;;;;5032247;28;20041;-76
2021/07/17 01:52:57;;;;;;;36.67;19.80;;;18.40;99.90;;;;;;5016135;28;20021;-77
2021/07/17 01:55:24;;;;;;;31.88;20.60;;;18.40;99.90;;;;;;5023751;28;20029;-77
2021/07/17 01:57:50;;;;;;;36.75;21.63;;;18.20;99.90;;;;;;5034086;28;20029;-77
2021/07/17 02:00:17;;;;;;;34.33;21.08;;;18.30;99.90;;;;;;5031904;28;20028;-76
2021/07/17 02:02:43;;;;;;;35.83;22.17;;;18.20;99.90;;;;;;5038095;28;20070;-76
2021/07/17 02:05:10;;;;;;;33.35;20.92;;;18.10;99.90;;;;;;5032485;28;20373;-76
2021/07/17 02:07:35;;;;;;;32.20;21.27;;;18.10;99.90;;;;;;5031886;28;20086;-76
2021/07/17 02:10:25;;;;;;;37.03;22.75;;;18.00;99.90;;;;;;5032509;28;20050;-77
2021/07/17 02:13:05;;;;;;;33.10;21.02;;;18.00;99.90;;;;;;5031170;28;20037;-78
2021/07/17 02:15:35;;;;;;;36.72;22.98;;;18.00;99.90;;;;;;5034049;28;20022;-77
2021/07/17 02:18:01;;;;;;;30.05;19.67;;;17.90;99.90;;;;;;5034308;28;20033;-78
2021/07/17 02:20:28;;;;;;;35.60;21.25;;;18.10;99.90;;;;;;5033957;28;20672;-77
2021/07/17 02:22:53;;;;;;;31.48;20.48;;;18.10;99.90;;;;;;5032662;28;20029;-76
2021/07/17 02:25:19;;;;;;;34.85;21.45;;;18.10;99.90;;;;;;5031684;28;20202;-77
2021/07/17 02:27:45;;;;;;;35.47;21.80;;;18.20;99.90;;;;;;5033084;28;20038;-78
2021/07/17 02:30:11;;;;;;;38.90;21.75;;;18.10;99.90;;;;;;5033513;28;20037;-77
2021/07/17 02:32:37;;;;;;;34.55;21.92;;;18.20;99.90;;;;;;5032284;28;20030;-77
2021/07/17 02:35:03;;;;;;;33.97;21.67;;;18.20;99.90;;;;;;5032443;28;20617;-77
2021/07/17 02:37:29;;;;;;;29.83;21.23;;;18.20;99.90;;;;;;5033072;28;20044;-77
2021/07/17 02:39:54;;;;;;;31.70;20.55;;;18.10;99.90;;;;;;5032071;28;20383;-76
2021/07/17 02:42:20;;;;;;;38.72;21.17;;;18.20;99.90;;;;;;5031665;28;20029;-76
2021/07/17 02:44:46;;;;;;;36.92;23.50;;;18.10;99.90;;;;;;5030317;28;20025;-76
2021/07/17 02:47:12;;;;;;;37.55;23.83;;;18.00;99.90;;;;;;5031615;28;20100;-76
2021/07/17 02:49:37;;;;;;;40.20;22.30;;;18.00;99.90;;;;;;5031669;28;20052;-76
2021/07/17 02:52:03;;;;;;;36.22;22.60;;;18.00;99.90;;;;;;5024803;28;20029;-76
2021/07/17 02:54:29;;;;;;;37.25;22.55;;;18.10;99.90;;;;;;5031346;28;20026;-76
2021/07/17 02:56:54;;;;;;;33.03;22.40;;;18.10;99.90;;;;;;5031629;28;20045;-76
2021/07/17 02:59:20;;;;;;;36.90;22.65;;;17.90;99.90;;;;;;5035467;28;20188;-76
2021/07/17 03:01:45;;;;;;;33.08;21.42;;;17.80;99.90;;;;;;5035554;28;20078;-77
2021/07/17 03:04:11;;;;;;;43.38;23.58;;;17.80;99.90;;;;;;5037262;28;20029;-76
2021/07/17 03:06:36;;;;;;;40.42;24.77;;;17.60;99.90;;;;;;5036097;28;20029;-76
2021/07/17 03:09:04;;;;;;;38.30;23.60;;;17.50;99.90;;;;;;5034471;28;20030;-76
2021/07/17 03:11:32;;;;;;;33.50;22.83;;;17.60;99.90;;;;;;5033911;28;20033;-76
2021/07/17 03:13:58;;;;;;;34.75;22.13;;;17.50;99.90;;;;;;5033959;28;20032;-76
2021/07/17 03:16:24;;;;;;;45.72;24.00;;;17.60;99.90;;;;;;5034880;28;20026;-76
2021/07/17 03:18:50;;;;;;;37.13;23.77;;;17.70;99.90;;;;;;5035423;28;20025;-77
2021/07/17 03:21:15;;;;;;;44.10;24.98;;;17.70;99.90;;;;;;5035197;28;20563;-76
2021/07/17 03:23:41;;;;;;;38.67;23.38;;;17.70;99.90;;;;;;5035042;28;20029;-76
2021/07/17 03:26:06;;;;;;;35.70;23.60;;;17.70;99.90;;;;;;5034786;28;20610;-76
2021/07/17 03:28:32;;;;;;;36.80;23.25;;;17.80;99.90;;;;;;5033869;28;20083;-76
2021/07/17 03:30:57;;;;;;;38.97;23.05;;;17.80;99.90;;;;;;5034932;28;20033;-76
2021/07/17 03:33:23;;;;;;;34.35;21.55;;;17.90;99.90;;;;;;5034909;28;20029;-75
2021/07/17 03:35:48;;;;;;;33.47;21.80;;;17.80;99.90;;;;;;5034593;28;20495;-76
2021/07/17 03:38:14;;;;;;;39.47;23.65;;;17.90;99.90;;;;;;5034679;28;20087;-76
2021/07/17 03:40:39;;;;;;;38.70;23.25;;;17.70;99.90;;;;;;5016804;28;20061;-76
2021/07/17 03:43:05;;;;;;;43.83;26.05;;;17.70;99.90;;;;;;5034948;28;20380;-76
2021/07/17 03:45:30;;;;;;;39.25;24.67;;;17.50;99.90;;;;;;5033167;28;20033;-76
2021/07/17 03:47:56;;;;;;;48.67;25.73;;;17.50;99.90;;;;;;5033335;28;20021;-75
2021/07/17 03:50:22;;;;;;;39.28;24.13;;;17.50;99.90;;;;;;5033287;28;20017;-76
2021/07/17 03:52:47;;;;;;;44.92;24.58;;;17.60;99.90;;;;;;5034577;28;20490;-76
2021/07/17 03:55:13;;;;;;;43.50;25.58;;;17.50;99.90;;;;;;5034265;28;20113;-75
2021/07/17 03:57:38;;;;;;;40.97;24.17;;;17.30;99.90;;;;;;5034229;28;20022;-76
2021/07/17 04:00:05;;;;;;;46.10;25.20;;;17.50;99.90;;;;;;5034388;28;20025;-76
2021/07/17 04:02:39;;;;;;;45.95;26.50;;;17.60;99.90;;;;;;5034339;28;20026;-76
2021/07/17 04:05:06;;;;;;;41.28;25.35;;;17.60;99.90;;;;;;5034052;28;20079;-75
2021/07/17 04:07:31;;;;;;;40.60;23.58;;;17.60;99.90;;;;;;5034206;28;20062;-74
2021/07/17 04:09:58;;;;;;;44.97;24.63;;;17.70;99.90;;;;;;5033313;28;20050;-75
2021/07/17 04:12:25;;;;;;;39.63;24.80;;;17.70;99.90;;;;;;5034160;28;20389;-74
2021/07/17 04:14:50;;;;;;;42.22;23.88;;;17.80;99.90;;;;;;5033956;28;20035;-75
2021/07/17 04:17:16;;;;;;;44.00;26.33;;;17.70;99.90;;;;;;5032405;28;20105;-75
2021/07/17 04:19:41;;;;;;;51.63;26.85;;;17.70;99.90;;;;;;5034023;28;20033;-75
2021/07/17 04:22:07;;;;;;;43.40;26.40;;;17.50;99.90;;;;;;5034084;28;20106;-76
2021/07/17 04:24:32;;;;;;;38.13;23.92;;;17.50;99.90;;;;;;5033676;28;20021;-76
2021/07/17 04:26:58;;;;;;;40.20;24.25;;;17.60;99.90;;;;;;5033883;28;20021;-76
2021/07/17 04:29:23;;;;;;;48.50;26.27;;;17.80;99.90;;;;;;5033898;28;20495;-76
2021/07/17 04:31:49;;;;;;;47.97;25.73;;;17.70;99.90;;;;;;5033821;28;20033;-75
2021/07/17 04:34:14;;;;;;;39.97;25.23;;;17.70;99.90;;;;;;5033697;28;20044;-75
2021/07/17 04:36:40;;;;;;;40.08;23.45;;;17.70;99.90;;;;;;5033342;28;20060;-74
2021/07/17 04:39:05;;;;;;;49.60;26.67;;;17.80;99.90;;;;;;5037218;28;20036;-75
2021/07/17 04:41:31;;;;;;;44.70;25.85;;;17.70;99.90;;;;;;5033604;28;20441;-75
2021/07/17 04:43:56;;;;;;;45.78;25.98;;;17.70;99.90;;;;;;5032166;28;20026;-75
2021/07/17 04:46:22;;;;;;;49.00;26.65;;;17.60;99.90;;;;;;5033513;28;20097;-76
2021/07/17 04:48:47;;;;;;;49.50;26.55;;;17.40;99.90;;;;;;5033428;28;20163;-75
2021/07/17 04:51:13;;;;;;;47.85;26.55;;;17.50;99.90;;;;;;5032486;28;20115;-75
2021/07/17 04:53:38;;;;;;;46.75;27.05;;;17.60;99.90;;;;;;5034353;28;20026;-74
2021/07/17 04:56:04;;;;;;;39.30;25.65;;;17.80;99.90;;;;;;5031588;28;20026;-74
2021/07/17 04:58:29;;;;;;;47.28;26.65;;;17.80;99.90;;;;;;5033031;28;20051;-75
2021/07/17 05:00:55;;;;;;;43.42;25.73;;;17.90;99.90;;;;;;5033272;28;20496;-75
2021/07/17 05:03:20;;;;;;;49.40;26.98;;;17.90;99.90;;;;;;5032969;28;20029;-75
2021/07/17 05:05:47;;;;;;;43.95;26.15;;;17.80;99.90;;;;;;5039679;28;20021;-75
2021/07/17 05:08:12;;;;;;;45.90;26.58;;;17.90;99.90;;;;;;5033022;28;20060;-75
2021/07/17 05:10:38;;;;;;;49.45;26.67;;;17.70;99.90;;;;;;5024216;28;20056;-74
2021/07/17 05:13:14;;;;;;;49.67;27.17;;;17.70;99.90;;;;;;5030935;28;20101;-74
2021/07/17 05:15:41;;;;;;;46.83;26.90;;;17.70;99.90;;;;;;5035265;28;20121;-75
2021/07/17 05:18:07;;;;;;;49.83;27.48;;;17.30;99.90;;;;;;5035852;28;20029;-75
2021/07/17 05:20:32;;;;;;;48.67;27.13;;;17.50;99.90;;;;;;5036787;28;20022;-75
2021/07/17 05:22:58;;;;;;;44.83;27.48;;;17.70;99.90;;;;;;5032726;28;20021;-75
2021/07/17 05:25:24;;;;;;;41.58;26.75;;;17.70;99.90;;;;;;5032376;28;20032;-74
2021/07/17 05:27:49;;;;;;;45.90;27.67;;;17.90;99.90;;;;;;5032577;28;20037;-75
2021/07/17 05:30:15;;;;;;;48.00;27.88;;;18.00;99.90;;;;;;5032652;28;20494;-75
2021/07/17 05:32:41;;;;;;;48.38;28.80;;;17.90;99.90;;;;;;5032545;28;20022;-75
2021/07/17 05:35:06;;;;;;;49.60;27.65;;;18.00;99.90;;;;;;5032314;28;20029;-74
2021/07/17 05:37:32;;;;;;;52.28;28.40;;;18.10;99.90;;;;;;5032244;28;20036;-74
2021/07/17 05:39:57;;;;;;;50.50;26.75;;;18.10;99.90;;;;;;5031030;28;20060;-74
2021/07/17 05:42:23;;;;;;;43.20;27.63;;;18.30;99.90;;;;;;5031158;28;20021;-74
2021/07/17 05:44:49;;;;;;;46.72;27.85;;;18.20;99.90;;;;;;5032196;28;20067;-74
2021/07/17 05:47:15;;;;;;;45.38;27.00;;;18.20;99.90;;;;;;5030907;28;20559;-74
2021/07/17 05:49:41;;;;;;;45.83;27.90;;;18.30;99.90;;;;;;5031023;28;20035;-75
2021/07/17 05:52:07;;;;;;;47.92;26.83;;;18.20;99.90;;;;;;5032231;28;20079;-74
2021/07/17 05:54:33;;;;;;;43.83;27.98;;;18.10;99.90;;;;;;5031801;28;20022;-74
2021/07/17 05:56:58;;;;;;;46.90;27.27;;;18.10;99.90;;;;;;5031969;28;20049;-74
2021/07/17 05:59:24;;;;;;;46.92;29.05;;;18.30;99.90;;;;;;5032089;28;20064;-74
2021/07/17 06:01:49;;;;;;;47.30;29.20;;;18.40;99.90;;;;;;5031976;28;20501;-75
2021/07/17 06:04:15;;;;;;;56.00;28.60;;;18.30;99.90;;;;;;5031982;28;20033;-75
2021/07/17 06:06:40;;;;;;;50.95;27.98;;;18.30;99.90;;;;;;5028959;28;20041;-74
2021/07/17 06:09:06;;;;;;;47.78;28.05;;;18.10;99.90;;;;;;5032633;28;20552;-75
2021/07/17 06:11:31;;;;;;;48.13;28.45;;;18.10;99.90;;;;;;5031940;28;20475;-75
2021/07/17 06:13:57;;;;;;;53.22;28.33;;;18.00;99.90;;;;;;5031951;28;20045;-74
2021/07/17 06:16:22;;;;;;;51.53;28.17;;;18.20;99.90;;;;;;5031580;28;20087;-75
2021/07/17 06:18:48;;;;;;;48.90;29.15;;;18.30;99.90;;;;;;5021131;28;20024;-75
2021/07/17 06:21:13;;;;;;;52.17;30.15;;;18.30;99.90;;;;;;5031691;28;20033;-75
2021/07/17 06:23:39;;;;;;;44.42;26.73;;;18.40;99.90;;;;;;5031625;28;20021;-74
2021/07/17 06:26:05;;;;;;;46.15;27.58;;;18.40;99.90;;;;;;5030058;28;20029;-74
2021/07/17 06:28:31;;;;;;;46.63;25.75;;;18.40;99.90;;;;;;5031555;28;20091;-75
2021/07/17 06:30:57;;;;;;;47.20;28.83;;;18.10;99.90;;;;;;5031742;28;20475;-75
2021/07/17 06:33:23;;;;;;;50.70;28.70;;;18.00;99.90;;;;;;5031155;28;20387;-75
2021/07/17 06:35:48;;;;;;;50.90;29.40;;;18.00;99.90;;;;;;5031461;28;20369;-74
2021/07/17 06:38:14;;;;;;;46.83;28.15;;;18.10;99.90;;;;;;5031532;28;20026;-75
2021/07/17 06:40:39;;;;;;;45.92;27.90;;;18.20;99.90;;;;;;5034155;28;20025;-75
2021/07/17 06:43:05;;;;;;;59.53;27.48;;;17.90;99.90;;;;;;5031725;28;20387;-76
2021/07/17 06:45:30;;;;;;;42.53;27.65;;;17.90;99.90;;;;;;5027563;28;20491;-75
2021/07/17 06:47:56;;;;;;;50.20;28.95;;;18.00;99.90;;;;;;5027525;28;20045;-75
2021/07/17 06:50:22;;;;;;;46.58;29.17;;;17.90;99.90;;;;;;5028401;28;20418;-75
2021/07/17 06:52:48;;;;;;;46.28;27.55;;;17.90;99.90;;;;;;5031308;28;20429;-75
2021/07/17 06:55:15;;;;;;;45.78;27.30;;;17.90;99.90;;;;;;5029760;28;20030;-75
2021/07/17 06:57:41;;;;;;;48.88;28.58;;;18.00;99.90;;;;;;5031262;28;20515;-75
2021/07/17 07:00:12;;;;;;;57.13;30.67;;;18.20;99.90;;;;;;5031326;28;20036;-75
2021/07/17 07:02:38;;;;;;;44.90;27.10;;;18.20;99.90;;;;;;5030069;28;20025;-74
2021/07/17 07:05:06;;;;;;;46.33;28.50;;;18.20;99.90;;;;;;5031072;28;20476;-75
2021/07/17 07:07:32;;;;;;;47.60;26.25;;;18.10;99.90;;;;;;5031214;28;20053;-75
2021/07/17 07:09:58;;;;;;;41.20;24.17;;;18.20;99.90;;;;;;5031334;28;20064;-75
2021/07/17 07:12:23;;;;;;;38.55;24.92;;;18.10;99.90;;;;;;5031195;28;20174;-76
2021/07/17 07:14:49;;;;;;;41.45;26.50;;;18.30;99.90;;;;;;5031048;28;20069;-75
2021/07/17 07:17:15;;;;;;;39.25;24.05;;;18.40;99.90;;;;;;5029945;28;20059;-76
2021/07/17 07:19:40;;;;;;;35.53;23.10;;;18.60;99.90;;;;;;5031276;28;20467;-76
2021/07/17 07:22:06;;;;;;;41.92;25.25;;;18.70;99.90;;;;;;5031311;28;20133;-76
2021/07/17 07:24:31;;;;;;;31.85;23.65;;;18.80;99.90;;;;;;5031060;28;20033;-76
2021/07/17 07:26:57;;;;;;;34.38;22.35;;;18.80;99.90;;;;;;5031161;28;20049;-76
2021/07/17 07:29:24;;;;;;;33.30;21.38;;;18.80;99.90;;;;;;5030005;28;20110;-76
2021/07/17 07:31:54;;;;;;;35.22;22.52;;;18.90;99.90;;;;;;5029962;28;20032;-75
2021/07/17 07:34:20;;;;;;;31.90;21.40;;;19.00;99.90;;;;;;5031029;28;20026;-77
2021/07/17 07:36:49;;;;;;;33.38;20.83;;;19.00;99.90;;;;;;5030855;28;20025;-75
2021/07/17 07:39:16;;;;;;;29.00;19.30;;;18.90;99.90;;;;;;5027634;28;20022;-76
2021/07/17 07:41:42;;;;;;;28.17;19.85;;;19.10;99.90;;;;;;5029928;28;20472;-76
2021/07/17 07:44:08;;;;;;;28.75;19.40;;;19.20;99.90;;;;;;5031255;28;20017;-76
2021/07/17 07:46:34;;;;;;;30.55;20.52;;;19.00;99.90;;;;;;5034464;28;20108;-75
2021/07/17 07:49:01;;;;;;;26.50;18.92;;;19.10;99.90;;;;;;5034544;28;20419;-76
2021/07/17 07:51:27;;;;;;;29.33;20.00;;;19.00;99.90;;;;;;5034485;28;20057;-75
2021/07/17 07:53:53;;;;;;;32.13;20.88;;;19.00;99.90;;;;;;5034504;28;20072;-75
2021/07/17 07:56:18;;;;;;;28.50;20.63;;;19.10;99.90;;;;;;5034247;28;20419;-76
2021/07/17 07:58:44;;;;;;;33.65;19.88;;;18.90;99.90;;;;;;5034297;28;20117;-76
2021/07/17 08:01:09;;;;;;;31.75;20.38;;;19.10;99.90;;;;;;5034408;28;20033;-75
2021/07/17 08:03:35;;;;;;;26.40;19.42;;;19.00;99.90;;;;;;5034175;28;20441;-76
2021/07/17 08:06:01;;;;;;;27.15;18.70;;;19.20;99.90;;;;;;5034055;28;20783;-75
2021/07/17 08:08:26;;;;;;;26.50;17.85;;;19.10;99.90;;;;;;5034148;28;20025;-76
2021/07/17 08:10:52;;;;;;;25.25;17.73;;;19.20;99.90;;;;;;5034300;28;20037;-76
2021/07/17 08:13:18;;;;;;;25.10;16.70;;;19.30;99.90;;;;;;5032865;28;20025;-76
2021/07/17 08:15:43;;;;;;;26.33;16.52;;;19.40;99.90;;;;;;5033937;28;20438;-76
2021/07/17 08:18:11;;;;;;;21.85;16.38;;;19.40;99.90;;;;;;5033722;28;20040;-74
2021/07/17 08:20:37;;;;;;;20.58;16.48;;;19.50;99.90;;;;;;5034116;28;20097;-75
2021/07/17 08:23:03;;;;;;;24.67;15.85;;;19.60;99.90;;;;;;5034099;28;20583;-76
2021/07/17 08:25:28;;;;;;;24.95;15.68;;;19.70;99.90;;;;;;5033791;28;20049;-76
2021/07/17 08:27:54;;;;;;;23.25;16.73;;;19.60;99.90;;;;;;5033823;28;20033;-76
2021/07/17 08:30:20;;;;;;;21.10;16.15;;;19.50;99.90;;;;;;5033917;28;20064;-75
2021/07/17 08:32:45;;;;;;;21.73;15.95;;;19.70;99.90;;;;;;5033742;28;20036;-75
2021/07/17 08:35:11;;;;;;;24.25;17.50;;;19.60;99.90;;;;;;5033919;28;20043;-75
2021/07/17 08:37:37;;;;;;;21.23;16.00;;;19.70;99.90;;;;;;5033583;28;20030;-75
2021/07/17 08:40:07;;;;;;;20.40;16.40;;;19.50;99.90;;;;;;5033696;28;20490;-75
2021/07/17 08:42:41;;;;;;;20.80;15.98;;;19.60;99.90;;;;;;5033458;28;20435;-76
2021/07/17 08:45:08;;;;;;;20.63;16.63;;;19.40;99.90;;;;;;5033407;28;20022;-76
2021/07/17 08:47:39;;;;;;;22.15;15.65;;;19.50;99.90;;;;;;5033358;28;20033;-75
2021/07/17 08:50:06;;;;;;;20.20;15.45;;;19.50;99.90;;;;;;5033526;28;20101;-75
2021/07/17 08:52:33;;;;;;;22.40;16.40;;;19.60;99.90;;;;;;5020155;28;20030;-75
2021/07/17 08:55:04;;;;;;;24.60;16.58;;;19.70;99.90;;;;;;5032630;28;20057;-75
2021/07/17 08:57:41;;;;;;;19.60;15.98;;;19.80;99.90;;;;;;5031848;28;20083;-75
2021/07/17 09:00:11;;;;;;;28.48;17.58;;;20.00;99.90;;;;;;5033065;28;20049;-76
2021/07/17 09:02:41;;;;;;;22.27;17.02;;;19.90;99.90;;;;;;5033089;28;20045;-76
2021/07/17 09:05:10;;;;;;;24.15;15.50;;;19.90;99.90;;;;;;5031600;28;20080;-76
2021/07/17 09:07:36;;;;;;;20.45;15.48;;;19.90;99.90;;;;;;5031838;28;20372;-76
2021/07/17 09:10:28;;;;;;;22.50;14.52;;;19.90;99.90;;;;;;5033856;28;20040;-75
2021/07/17 09:13:18;;;;;;;16.70;12.82;;;20.00;99.90;;;;;;5030304;28;20037;-75
2021/07/17 09:15:50;;;;;;;17.02;13.02;;;20.20;99.90;;;;;;5032812;28;20072;-75
2021/07/17 09:18:26;;;;;;;16.88;11.88;;;20.20;99.90;;;;;;5032619;28;20553;-76
2021/07/17 09:20:57;;;;;;;14.73;11.27;;;20.10;99.90;;;;;;5032892;28;20026;-75
2021/07/17 09:23:28;;;;;;;15.43;11.30;;;20.40;99.90;;;;;;5019939;28;20057;-75
2021/07/17 09:25:54;;;;;;;15.75;11.52;;;20.20;99.90;;;;;;5031286;28;20076;-76
2021/07/17 09:28:29;;;;;;;13.55;11.13;;;20.20;99.90;;;;;;5031577;28;20064;-75
2021/07/17 09:30:57;;;;;;;14.80;11.63;;;20.30;99.90;;;;;;5032671;28;20025;-76
2021/07/17 09:33:23;;;;;;;14.00;11.20;;;20.30;99.90;;;;;;5031205;28;20032;-74
2021/07/17 09:35:51;;;;;;;14.60;11.52;;;20.10;99.90;;;;;;5032354;28;20049;-75
2021/07/17 09:38:21;;;;;;;14.68;11.00;;;20.20;99.90;;;;;;5032379;28;20034;-75
2021/07/17 09:40:57;;;;;;;16.45;11.15;;;20.00;99.90;;;;;;5043190;23;20043;-74
2021/07/17 09:43:37;;;;;;;15.77;11.77;;;20.00;99.90;;;;;;5001996;28;20080;-74
2021/07/17 09:46:18;;;;;;;13.20;11.35;;;20.20;99.90;;;;;;5000358;28;20022;-74
2021/07/17 09:48:55;;;;;;;13.23;10.80;;;20.20;99.90;;;;;;5000729;28;20487;-74
2021/07/17 09:51:30;;;;;;;14.05;10.40;;;20.30;99.90;;;;;;5003109;28;20022;-74
2021/07/17 09:53:59;;;;;;;12.98;11.02;;;20.40;99.90;;;;;;4992507;28;20022;-74
2021/07/17 09:56:27;;;;;;;16.92;12.45;;;20.40;99.90;;;;;;4993582;28;20053;-74
2021/07/17 09:58:54;;;;;;;13.98;11.68;;;20.10;99.90;;;;;;5007126;28;20022;-74
2021/07/17 10:01:31;;;;;;;13.68;12.20;;;20.00;99.90;;;;;;5005958;28;20050;-75
2021/07/17 10:03:59;;;;;;;19.08;14.02;;;19.90;99.90;;;;;;5005863;28;20065;-74
2021/07/17 10:06:30;;;;;;;21.23;15.30;;;19.90;99.90;;;;;;4991053;28;20030;-74
2021/07/17 10:08:56;;;;;;;20.45;14.38;;;19.90;99.90;;;;;;5004657;28;20018;-74
2021/07/17 10:11:23;;;;;;;20.25;14.20;;;19.90;99.90;;;;;;5006467;28;20096;-74
2021/07/17 10:13:49;;;;;;;18.33;15.43;;;20.00;99.90;;;;;;4993537;28;20042;-74
2021/07/17 10:16:20;;;;;;;21.00;15.38;;;19.70;99.90;;;;;;4993042;28;20050;-74
2021/07/17 10:18:47;;;;;;;19.70;15.43;;;19.70;99.90;;;;;;5002965;28;20407;-75
2021/07/17 10:21:13;;;;;;;22.88;15.75;;;19.90;99.90;;;;;;4997129;28;20515;-74
2021/07/17 10:23:39;;;;;;;22.35;16.27;;;19.80;99.90;;;;;;5001905;28;20034;-75
2021/07/17 10:26:06;;;;;;;20.20;15.30;;;20.20;99.90;;;;;;4999200;28;20414;-74
2021/07/17 10:28:32;;;;;;;20.30;15.02;;;20.50;99.90;;;;;;5003745;28;20038;-75
2021/07/17 10:30:59;;;;;;;22.45;15.38;;;20.50;99.90;;;;;;5005723;28;20107;-75
2021/07/17 10:33:25;;;;;;;21.55;15.00;;;20.90;99.90;;;;;;5001848;28;20022;-75
2021/07/17 10:35:52;;;;;;;22.75;14.60;;;20.80;99.90;;;;;;4998785;28;20027;-74
2021/07/17 10:38:22;;;;;;;20.65;14.52;;;20.70;99.90;;;;;;5002655;28;20026;-74
2021/07/17 10:40:49;;;;;;;21.38;14.65;;;20.80;99.90;;;;;;4988094;28;20035;-74
2021/07/17 10:43:16;;;;;;;22.58;14.88;;;20.50;99.90;;;;;;4993692;28;20375;-74
2021/07/17 10:45:43;;;;;;;18.40;14.07;;;20.80;99.90;;;;;;4994048;28;20073;-74
2021/07/17 10:48:24;;;;;;;19.90;13.85;;;21.30;99.90;;;;;;5002973;28;20061;-75
2021/07/17 10:50:49;;;;;;;18.30;14.07;;;20.90;99.90;;;;;;4998746;28;20037;-75
2021/07/17 10:53:44;;;;;;;20.05;13.98;;;21.00;99.90;;;;;;4998239;28;20027;-75
2021/07/17 10:56:28;;;;;;;27.30;15.52;;;21.40;99.90;;;;;;4992290;28;20088;-75
2021/07/17 10:58:58;;;;;;;17.83;13.77;;;21.80;99.90;;;;;;5006217;28;20026;-75
2021/07/17 11:01:25;;;;;;;21.52;14.13;;;21.30;99.90;;;;;;5004083;28;20022;-73
2021/07/17 11:03:52;;;;;;;16.98;13.27;;;21.10;99.90;;;;;;5011999;28;20026;-74
2021/07/17 11:06:49;;;;;;;18.15;13.07;;;21.40;99.90;;;;;;4998316;28;20022;-75
2021/07/17 11:09:27;;;;;;;18.05;13.30;;;21.30;99.90;;;;;;4983282;28;20061;-74
2021/07/17 11:12:19;;;;;;;17.95;13.65;;;21.30;99.90;;;;;;4992375;28;20105;-74
2021/07/17 11:14:45;;;;;;;19.58;13.80;;;20.90;99.90;;;;;;5005344;28;20022;-74
2021/07/17 11:17:11;;;;;;;17.58;13.55;;;20.70;99.90;;;;;;5001445;28;20475;-76
2021/07/17 11:19:36;;;;;;;17.27;13.68;;;20.90;99.90;;;;;;4999832;28;20023;-74
2021/07/17 11:22:13;;;;;;;16.52;13.13;;;21.60;99.90;;;;;;5015704;28;20026;-74
2021/07/17 11:24:39;;;;;;;18.95;13.95;;;21.70;99.90;;;;;;5002259;28;20488;-74
2021/07/17 11:27:17;;;;;;;18.77;13.77;;;21.90;99.90;;;;;;5005454;28;20034;-74
2021/07/17 11:29:45;;;;;;;16.85;12.65;;;22.10;99.90;;;;;;5009021;28;20030;-75
2021/07/17 11:32:11;;;;;;;20.42;14.05;;;22.40;99.90;;;;;;4995850;28;20033;-74
2021/07/17 11:34:51;;;;;;;18.40;13.85;;;22.10;99.90;;;;;;5001250;28;20105;-74
2021/07/17 11:37:24;;;;;;;18.27;13.32;;;22.20;99.90;;;;;;4999973;28;20037;-74
2021/07/17 11:39:53;;;;;;;19.88;13.18;;;22.00;99.90;;;;;;4993972;28;20061;-74
2021/07/17 11:42:20;;;;;;;21.40;13.02;;;22.10;99.90;;;;;;4993939;28;20037;-74
2021/07/17 11:44:52;;;;;;;20.88;13.60;;;22.60;99.90;;;;;;4995022;28;20057;-74
2021/07/17 11:47:21;;;;;;;17.23;12.57;;;22.80;99.90;;;;;;4994614;28;20563;-74
2021/07/17 11:49:53;;;;;;;17.90;13.02;;;22.50;99.90;;;;;;5005928;28;20026;-74
2021/07/17 11:52:26;;;;;;;18.92;13.88;;;22.40;99.90;;;;;;4997536;28;20109;-74
2021/07/17 11:54:54;;;;;;;17.20;13.13;;;22.10;99.90;;;;;;4993956;28;20061;-74
2021/07/17 11:57:33;;;;;;;18.92;13.40;;;22.00;99.90;;;;;;5012999;28;20048;-74
2021/07/17 12:00:16;;;;;;;19.33;13.13;;;22.30;99.90;;;;;;5001736;28;20037;-74
2021/07/17 12:02:43;;;;;;;16.02;13.07;;;22.30;99.90;;;;;;5003693;28;20037;-74
2021/07/17 12:05:15;;;;;;;20.77;13.95;;;22.20;99.90;;;;;;5010310;28;20501;-74
2021/07/17 12:07:42;;;;;;;20.08;13.82;;;22.00;99.90;;;;;;5003819;28;20030;-75
2021/07/17 12:10:09;;;;;;;18.70;13.60;;;22.00;99.90;;;;;;5006743;28;20026;-75
2021/07/17 12:12:39;;;;;;;19.55;14.05;;;21.70;99.90;;;;;;5004525;28;20434;-74
2021/07/17 12:15:28;;;;;;;22.65;13.93;;;22.00;99.90;;;;;;5001295;28;20033;-76
2021/07/17 12:18:06;;;;;;;18.90;14.45;;;22.20;99.90;;;;;;5010868;28;20705;-74
2021/07/17 12:20:36;;;;;;;19.38;14.23;;;22.20;99.90;;;;;;5004914;28;20026;-74
2021/07/17 12:23:13;;;;;;;19.73;14.35;;;22.20;99.90;;;;;;5000132;28;20116;-75
2021/07/17 12:25:44;;;;;;;20.67;14.65;;;22.30;99.90;;;;;;5001151;28;20518;-75
2021/07/17 12:28:21;;;;;;;20.17;14.90;;;22.40;99.90;;;;;;5006789;28;20041;-75
2021/07/17 12:30:52;;;;;;;20.02;14.85;;;22.40;99.90;;;;;;5006770;28;20108;-74